createdAt,value
2018-06-18T00:00:28.939Z,16.70
2018-06-18T00:02:56.284Z,16.70
2018-06-18T00:05:23.754Z,16.70
2018-06-18T00:07:51.030Z,16.70
2018-06-18T00:10:18.484Z,16.70
2018-06-18T00:12:45.861Z,16.80
2018-06-18T00:15:13.253Z,16.70
2018-06-18T00:17:40.554Z,16.70
2018-06-18T00:20:07.910Z,16.60
2018-06-18T00:22:35.193Z,16.60
2018-06-18T00:25:02.507Z,16.60
2018-06-18T00:27:30.211Z,16.60
2018-06-18T00:29:57.605Z,16.60
2018-06-18T00:32:25.018Z,16.70
2018-06-18T00:34:52.339Z,16.70
2018-06-18T00:39:46.891Z,16.60
2018-06-18T00:42:14.216Z,16.60
2018-06-18T00:44:41.578Z,16.60
2018-06-18T00:47:09.032Z,16.60
2018-06-18T00:49:36.365Z,16.60
2018-06-18T00:52:03.826Z,16.60
2018-06-18T00:54:31.098Z,16.60
2018-06-18T00:56:58.379Z,16.50
2018-06-18T00:59:25.682Z,16.60
2018-06-18T01:01:53.098Z,16.50
2018-06-18T01:04:20.422Z,16.60
2018-06-18T01:06:47.760Z,16.50
2018-06-18T01:09:15.153Z,16.50
2018-06-18T01:11:42.466Z,16.50
2018-06-18T01:14:09.806Z,16.50
2018-06-18T01:16:37.184Z,16.50
2018-06-18T01:19:04.466Z,16.40
2018-06-18T01:21:31.854Z,16.50
2018-06-18T01:24:10.803Z,16.50
2018-06-18T01:26:38.171Z,16.50
2018-06-18T01:29:05.440Z,16.50
2018-06-18T01:31:32.785Z,16.40
2018-06-18T01:34:01.394Z,16.40
2018-06-18T01:36:28.899Z,16.50
2018-06-18T01:38:56.229Z,16.50
2018-06-18T01:41:23.547Z,16.50
2018-06-18T01:43:50.857Z,16.60
2018-06-18T01:46:18.153Z,16.50
2018-06-18T01:48:45.678Z,16.50
2018-06-18T01:53:40.342Z,16.50
2018-06-18T01:56:07.654Z,16.40
2018-06-18T01:58:34.994Z,16.40
2018-06-18T02:01:02.291Z,16.50
2018-06-18T02:03:29.641Z,16.50
2018-06-18T02:05:56.995Z,16.40
2018-06-18T02:08:24.475Z,16.50
2018-06-18T02:10:51.767Z,16.50
2018-06-18T02:13:19.038Z,16.50
2018-06-18T02:15:46.314Z,16.50
2018-06-18T02:18:13.586Z,16.50
2018-06-18T02:20:40.869Z,16.50
2018-06-18T02:23:08.133Z,16.50
2018-06-18T02:25:35.531Z,16.50
2018-06-18T02:28:08.677Z,16.50
2018-06-18T02:30:41.524Z,16.60
2018-06-18T02:33:14.452Z,16.50
2018-06-18T02:35:47.394Z,16.50
2018-06-18T02:38:20.346Z,16.50
2018-06-18T02:40:47.698Z,16.50
2018-06-18T02:43:20.556Z,16.60
2018-06-18T02:45:47.906Z,16.60
2018-06-18T02:48:15.210Z,16.60
2018-06-18T02:50:42.781Z,16.50
2018-06-18T02:53:10.147Z,16.50
2018-06-18T02:55:38.941Z,16.50
2018-06-18T02:58:06.288Z,16.50
2018-06-18T03:00:34.646Z,16.40
2018-06-18T03:03:01.931Z,16.40
2018-06-18T03:05:29.281Z,16.40
2018-06-18T03:07:56.540Z,16.40
2018-06-18T03:10:23.889Z,16.40
2018-06-18T03:12:51.188Z,16.40
2018-06-18T03:15:18.571Z,16.30
2018-06-18T03:17:45.819Z,16.40
2018-06-18T03:20:18.851Z,16.30
2018-06-18T03:22:52.234Z,16.30
2018-06-18T03:25:26.090Z,16.30
2018-06-18T03:27:59.293Z,16.30
2018-06-18T03:30:26.736Z,16.30
2018-06-18T03:32:54.132Z,16.40
2018-06-18T03:35:21.526Z,16.40
2018-06-18T03:37:49.261Z,16.40
2018-06-18T03:40:16.594Z,16.50
2018-06-18T03:42:44.191Z,16.50
2018-06-18T03:45:18.750Z,16.50
2018-06-18T03:47:46.062Z,16.50
2018-06-18T03:50:13.552Z,16.50
2018-06-18T03:52:40.843Z,16.50
2018-06-18T03:55:16.437Z,16.60
2018-06-18T03:57:43.716Z,16.60
2018-06-18T04:00:10.997Z,16.60
2018-06-18T04:02:52.346Z,16.60
2018-06-18T04:05:25.282Z,16.70
2018-06-18T04:07:58.699Z,16.70
2018-06-18T04:10:33.456Z,16.60
2018-06-18T04:13:00.765Z,16.70
2018-06-18T04:15:28.082Z,16.70
2018-06-18T04:17:55.493Z,16.70
2018-06-18T04:20:23.376Z,16.70
2018-06-18T04:22:50.727Z,16.70
2018-06-18T04:25:18.084Z,16.70
2018-06-18T04:27:45.373Z,16.80
2018-06-18T04:30:12.804Z,16.80
2018-06-18T04:32:40.090Z,16.80
2018-06-18T04:35:08.846Z,16.80
2018-06-18T04:37:36.202Z,16.80
2018-06-18T04:40:03.912Z,16.80
2018-06-18T04:42:36.919Z,16.90
2018-06-18T04:45:09.802Z,16.90
2018-06-18T04:47:43.048Z,16.90
2018-06-18T04:50:16.033Z,16.90
2018-06-18T04:52:43.342Z,17.00
2018-06-18T04:55:10.694Z,17.00
2018-06-18T04:57:37.978Z,17.00
2018-06-18T05:00:17.434Z,17.10
2018-06-18T05:02:44.783Z,17.10
2018-06-18T05:05:12.090Z,17.10
2018-06-18T05:07:39.453Z,17.20
2018-06-18T05:10:14.696Z,17.20
2018-06-18T05:12:42.195Z,17.30
2018-06-18T05:15:09.496Z,17.30
2018-06-18T05:17:36.913Z,17.40
2018-06-18T05:20:05.753Z,17.30
2018-06-18T05:22:33.204Z,17.30
2018-06-18T05:25:00.503Z,17.30
2018-06-18T05:27:30.164Z,17.40
2018-06-18T05:30:00.993Z,17.40
2018-06-18T05:32:28.300Z,17.40
2018-06-18T05:34:55.621Z,17.50
2018-06-18T05:37:29.348Z,17.60
2018-06-18T05:39:56.668Z,17.50
2018-06-18T05:42:23.993Z,17.60
2018-06-18T05:44:51.275Z,17.60
2018-06-18T05:47:18.676Z,17.70
2018-06-18T05:49:46.026Z,17.70
2018-06-18T05:52:13.362Z,17.70
2018-06-18T05:54:40.641Z,17.70
2018-06-18T05:57:08.099Z,17.80
2018-06-18T05:59:35.417Z,17.90
2018-06-18T06:02:02.687Z,17.80
2018-06-18T06:04:29.998Z,17.70
2018-06-18T06:06:57.263Z,17.70
2018-06-18T06:09:24.651Z,17.80
2018-06-18T06:11:52.045Z,17.90
2018-06-18T06:14:19.349Z,17.90
2018-06-18T06:16:46.857Z,18.00
2018-06-18T06:19:14.162Z,18.10
2018-06-18T06:21:41.550Z,18.10
2018-06-18T06:24:08.824Z,18.00
2018-06-18T06:26:36.117Z,18.00
2018-06-18T06:29:03.439Z,18.00
2018-06-18T06:31:30.742Z,18.00
2018-06-18T06:33:58.083Z,18.00
2018-06-18T06:36:26.712Z,17.90
2018-06-18T06:38:54.276Z,17.90
2018-06-18T06:43:50.618Z,17.80
2018-06-18T06:46:18.058Z,17.90
2018-06-18T06:48:45.664Z,18.00
2018-06-18T06:51:12.991Z,18.20
2018-06-18T06:53:40.264Z,18.30
2018-06-18T06:56:07.536Z,18.30
2018-06-18T06:58:34.948Z,18.50
2018-06-18T07:01:02.315Z,18.50
2018-06-18T07:03:29.662Z,18.50
2018-06-18T07:05:56.949Z,18.50
2018-06-18T07:10:51.547Z,18.50
2018-06-18T07:13:18.865Z,18.50
2018-06-18T07:15:46.171Z,18.50
2018-06-18T07:18:13.590Z,18.50
2018-06-18T07:20:40.880Z,18.50
2018-06-18T07:23:08.171Z,18.50
2018-06-18T07:25:35.593Z,18.50
2018-06-18T07:28:02.947Z,18.60
2018-06-18T07:30:30.360Z,18.60
2018-06-18T07:32:57.467Z,18.70
2018-06-18T07:35:24.870Z,18.80
2018-06-18T07:37:52.459Z,18.90
2018-06-18T07:40:19.774Z,18.90
2018-06-18T07:42:47.405Z,19.10
2018-06-18T07:45:14.720Z,19.10
2018-06-18T07:47:45.504Z,19.00
2018-06-18T07:50:12.842Z,19.10
2018-06-18T07:52:40.141Z,19.20
2018-06-18T07:55:07.448Z,19.20
2018-06-18T07:57:34.964Z,19.40
2018-06-18T08:00:02.253Z,19.30
2018-06-18T08:02:29.562Z,19.40
2018-06-18T08:04:56.904Z,19.50
2018-06-18T08:07:24.590Z,19.50
2018-06-18T08:09:52.297Z,19.40
2018-06-18T08:12:19.669Z,19.50
2018-06-18T08:14:47.054Z,19.60
2018-06-18T08:17:14.357Z,19.60
2018-06-18T08:19:41.667Z,19.60
2018-06-18T08:22:09.366Z,19.50
2018-06-18T08:24:36.690Z,19.60
2018-06-18T08:27:04.072Z,19.40
2018-06-18T08:29:31.445Z,19.50
2018-06-18T08:31:58.885Z,19.60
2018-06-18T08:36:54.219Z,19.60
2018-06-18T08:39:22.234Z,19.60
2018-06-18T08:41:50.144Z,19.70
2018-06-18T08:44:17.701Z,19.80
2018-06-18T08:46:45.048Z,19.80
2018-06-18T08:49:12.414Z,19.80
2018-06-18T08:51:45.546Z,19.90
2018-06-18T08:54:18.441Z,19.90
2018-06-18T08:56:51.377Z,20.00
2018-06-18T08:59:24.408Z,19.90
2018-06-18T09:01:51.869Z,19.90
2018-06-18T09:04:24.788Z,20.00
2018-06-18T09:06:55.890Z,20.10
2018-06-18T09:09:23.200Z,20.10
2018-06-18T09:11:50.750Z,20.10
2018-06-18T09:14:18.145Z,20.10
2018-06-18T09:16:45.462Z,20.30
2018-06-18T09:19:12.831Z,20.30
2018-06-18T09:21:40.209Z,20.50
2018-06-18T09:24:07.587Z,20.70
2018-06-18T09:26:34.928Z,20.90
2018-06-18T09:29:03.002Z,21.00
2018-06-18T09:31:30.413Z,21.10
2018-06-18T09:33:57.742Z,21.10
2018-06-18T09:36:25.173Z,21.20
2018-06-18T09:38:52.581Z,20.90
2018-06-18T09:41:19.987Z,20.90
2018-06-18T09:43:48.415Z,20.90
2018-06-18T09:46:15.800Z,20.90
2018-06-18T09:48:48.900Z,21.10
2018-06-18T09:51:21.749Z,21.10
2018-06-18T09:53:54.610Z,21.30
2018-06-18T09:56:27.841Z,21.40
2018-06-18T09:59:01.020Z,21.50
2018-06-18T10:01:34.032Z,21.50
2018-06-18T10:04:02.854Z,21.80
2018-06-18T10:06:32.070Z,21.90
2018-06-18T10:09:01.579Z,22.10
2018-06-18T10:11:28.919Z,22.00
2018-06-18T10:13:56.311Z,21.80
2018-06-18T10:16:23.662Z,21.70
2018-06-18T10:18:51.178Z,21.80
2018-06-18T10:21:18.527Z,22.00
2018-06-18T10:23:46.560Z,22.10
2018-06-18T10:26:13.908Z,22.10
2018-06-18T10:28:41.287Z,22.10
2018-06-18T10:31:08.617Z,22.10
2018-06-18T10:33:41.722Z,22.20
2018-06-18T10:36:14.742Z,22.00
2018-06-18T10:38:47.913Z,22.00
2018-06-18T10:41:20.947Z,22.00
2018-06-18T10:43:48.415Z,22.00
2018-06-18T10:46:15.743Z,22.30
2018-06-18T10:48:43.277Z,22.30
2018-06-18T10:51:10.712Z,22.50
2018-06-18T10:53:38.168Z,22.60
2018-06-18T10:56:05.715Z,22.70
2018-06-18T10:58:33.128Z,23.00
2018-06-18T11:01:03.652Z,23.20
2018-06-18T11:03:31.101Z,23.10
2018-06-18T11:06:04.038Z,22.90
2018-06-18T11:08:31.396Z,22.90
2018-06-18T11:10:59.071Z,23.10
2018-06-18T11:13:26.959Z,23.10
2018-06-18T11:15:54.437Z,23.00
2018-06-18T11:18:27.498Z,23.00
2018-06-18T11:21:00.430Z,23.00
2018-06-18T11:23:33.357Z,23.10
2018-06-18T11:26:06.733Z,23.30
2018-06-18T11:28:34.342Z,23.40
2018-06-18T11:31:01.739Z,23.50
2018-06-18T11:33:29.132Z,23.50
2018-06-18T11:35:56.534Z,23.40
2018-06-18T11:38:24.016Z,23.30
2018-06-18T11:40:51.468Z,23.40
2018-06-18T11:43:19.149Z,23.60
2018-06-18T11:45:46.715Z,23.70
2018-06-18T11:48:20.916Z,23.90
2018-06-18T11:50:48.814Z,24.10
2018-06-18T11:53:16.994Z,24.00
2018-06-18T11:55:44.388Z,23.60
2018-06-18T11:58:11.811Z,23.30
2018-06-18T12:00:44.813Z,23.40
2018-06-18T12:03:17.736Z,23.40
2018-06-18T12:05:50.623Z,23.30
2018-06-18T12:08:23.706Z,23.20
2018-06-18T12:10:51.551Z,23.20
2018-06-18T12:13:19.500Z,23.40
2018-06-18T12:15:47.209Z,23.80
2018-06-18T12:18:14.759Z,24.10
2018-06-18T12:20:42.651Z,24.40
2018-06-18T12:23:10.573Z,24.50
2018-06-18T12:25:38.072Z,24.30
2018-06-18T12:28:05.637Z,24.30
2018-06-18T12:30:33.352Z,24.20
2018-06-18T12:33:00.947Z,24.10
2018-06-18T12:35:28.534Z,24.00
2018-06-18T12:37:55.967Z,24.00
2018-06-18T12:40:23.564Z,23.90
2018-06-18T12:42:51.122Z,23.80
2018-06-18T12:45:24.988Z,23.60
2018-06-18T12:48:21.664Z,23.70
2018-06-18T12:50:58.311Z,23.80
2018-06-18T12:53:31.609Z,23.90
2018-06-18T12:56:07.375Z,24.00
2018-06-18T12:58:35.102Z,24.00
2018-06-18T13:01:02.650Z,23.90
2018-06-18T13:03:30.242Z,24.10
2018-06-18T13:05:57.979Z,24.50
2018-06-18T13:08:25.679Z,24.80
2018-06-18T13:10:53.967Z,25.00
2018-06-18T13:13:22.168Z,25.00
2018-06-18T13:15:50.385Z,25.10
2018-06-18T13:18:18.116Z,25.10
2018-06-18T13:20:45.746Z,25.10
2018-06-18T13:23:13.936Z,25.20
2018-06-18T13:25:42.028Z,25.20
2018-06-18T13:28:15.117Z,25.20
2018-06-18T13:33:17.121Z,25.40
2018-06-18T13:35:46.415Z,25.30
2018-06-18T13:41:08.912Z,25.10
2018-06-18T13:43:43.373Z,25.20
2018-06-18T13:46:16.574Z,25.20
2018-06-18T13:48:44.968Z,25.20
2018-06-18T13:51:12.580Z,25.30
2018-06-18T13:53:50.158Z,25.20
2018-06-18T13:56:18.736Z,25.30
2018-06-18T13:58:46.603Z,25.10
2018-06-18T14:01:14.364Z,25.10
2018-06-18T14:03:42.428Z,25.10
2018-06-18T14:06:10.315Z,25.10
2018-06-18T14:09:03.068Z,25.30
2018-06-18T14:11:30.658Z,25.40
2018-06-18T14:13:59.672Z,25.80
2018-06-18T14:16:29.710Z,25.80
2018-06-18T14:18:59.383Z,25.70
2018-06-18T14:21:31.660Z,25.60
2018-06-18T14:23:59.372Z,25.60
2018-06-18T14:26:35.173Z,25.60
2018-06-18T14:29:14.716Z,25.80
2018-06-18T14:31:51.735Z,25.90
2018-06-18T14:34:24.884Z,25.90
2018-06-18T14:36:58.481Z,26.00
2018-06-18T14:39:31.538Z,26.20
2018-06-18T14:41:58.984Z,26.50
2018-06-18T14:44:57.690Z,26.50
2018-06-18T14:47:25.291Z,26.10
2018-06-18T14:49:53.007Z,26.00
2018-06-18T14:52:20.833Z,26.00
2018-06-18T14:54:48.420Z,25.80
2018-06-18T14:57:16.827Z,25.30
2018-06-18T14:59:55.923Z,25.00
2018-06-18T15:02:24.661Z,24.90
2018-06-18T15:04:52.426Z,25.00
2018-06-18T15:07:20.488Z,25.10
2018-06-18T15:09:50.591Z,25.10
2018-06-18T15:12:20.151Z,25.00
2018-06-18T15:14:52.473Z,25.10
2018-06-18T15:17:19.963Z,25.20
2018-06-18T15:19:47.929Z,25.20
2018-06-18T15:22:15.649Z,25.20
2018-06-18T15:24:48.516Z,25.10
2018-06-18T15:27:16.123Z,24.90
2018-06-18T15:29:43.531Z,24.70
2018-06-18T15:32:11.286Z,24.60
2018-06-18T15:34:38.699Z,24.50
2018-06-18T15:37:21.671Z,24.40
2018-06-18T15:39:49.450Z,24.30
2018-06-18T15:42:16.930Z,24.20
2018-06-18T15:44:44.890Z,24.20
2018-06-18T15:47:14.430Z,24.40
2018-06-18T15:49:42.212Z,24.60
2018-06-18T15:52:11.850Z,24.70
2018-06-18T15:54:39.456Z,24.50
2018-06-18T15:57:11.246Z,24.50
2018-06-18T16:00:05.531Z,24.20
2018-06-18T16:02:47.825Z,24.20
2018-06-18T16:05:15.391Z,24.10
2018-06-18T16:07:42.878Z,24.00
2018-06-18T16:10:10.339Z,24.00
2018-06-18T16:12:42.431Z,24.20
2018-06-18T16:15:09.935Z,24.10
2018-06-18T16:17:37.832Z,24.10
2018-06-18T16:20:05.345Z,24.30
2018-06-18T16:22:32.752Z,24.20
2018-06-18T16:25:00.170Z,24.30
2018-06-18T16:27:27.720Z,24.20
2018-06-18T16:29:55.415Z,23.80
2018-06-18T16:32:22.849Z,23.60
2018-06-18T16:34:52.646Z,23.30
2018-06-18T16:37:26.097Z,23.20
2018-06-18T16:39:54.000Z,23.30
2018-06-18T16:42:21.699Z,23.40
2018-06-18T16:44:49.319Z,23.40
2018-06-18T16:47:16.880Z,23.50
2018-06-18T16:49:44.248Z,23.70
2018-06-18T16:52:11.667Z,23.90
2018-06-18T16:54:42.631Z,23.90
2018-06-18T16:57:45.457Z,23.90
2018-06-18T17:00:12.891Z,23.70
2018-06-18T17:02:45.171Z,23.30
2018-06-18T17:05:12.950Z,23.20
2018-06-18T17:07:54.020Z,23.10
2018-06-18T17:10:21.771Z,23.00
2018-06-18T17:12:49.128Z,23.20
2018-06-18T17:15:16.607Z,23.30
2018-06-18T17:17:43.983Z,23.20
2018-06-18T17:20:11.576Z,23.20
2018-06-18T17:22:39.116Z,23.30
2018-06-18T17:25:06.605Z,23.50
2018-06-18T17:27:34.237Z,23.50
2018-06-18T17:30:01.882Z,23.50
2018-06-18T17:32:29.319Z,23.40
2018-06-18T17:34:56.619Z,23.30
2018-06-18T17:37:23.971Z,23.20
2018-06-18T17:39:51.375Z,23.20
2018-06-18T17:42:18.996Z,23.20
2018-06-18T17:44:46.480Z,23.20
2018-06-18T17:47:14.242Z,23.30
2018-06-18T17:49:42.822Z,23.40
2018-06-18T17:52:20.843Z,23.70
2018-06-18T17:54:48.319Z,24.20
2018-06-18T17:57:15.682Z,25.20
2018-06-18T17:59:43.874Z,26.40
2018-06-18T18:02:12.566Z,27.00
2018-06-18T18:04:40.003Z,27.50
2018-06-18T18:07:07.663Z,27.30
2018-06-18T18:09:36.218Z,26.40
2018-06-18T18:12:03.971Z,25.70
2018-06-18T18:14:33.181Z,25.30
2018-06-18T18:17:00.649Z,25.00
2018-06-18T18:19:28.247Z,24.80
2018-06-18T18:22:10.164Z,24.60
2018-06-18T18:24:52.712Z,24.30
2018-06-18T18:27:20.416Z,24.10
2018-06-18T18:29:48.022Z,24.00
2018-06-18T18:32:19.061Z,23.90
2018-06-18T18:34:46.664Z,23.70
2018-06-18T18:37:43.564Z,23.50
2018-06-18T18:40:12.069Z,23.10
2018-06-18T18:42:40.470Z,22.80
2018-06-18T18:45:08.173Z,22.60
2018-06-18T18:47:35.916Z,22.50
2018-06-18T18:50:03.803Z,22.20
2018-06-18T18:52:32.064Z,22.20
2018-06-18T18:55:45.277Z,22.10
2018-06-18T18:58:24.253Z,21.90
2018-06-18T19:00:52.953Z,21.70
2018-06-18T19:03:26.482Z,21.60
2018-06-18T19:06:02.607Z,21.50
2018-06-18T19:08:49.546Z,21.40
2018-06-18T19:11:17.298Z,21.30
2018-06-18T19:13:45.361Z,21.30
2018-06-18T19:16:14.345Z,21.20
2018-06-18T19:18:45.973Z,21.20
2018-06-18T19:21:14.271Z,21.20
2018-06-18T19:23:41.672Z,21.10
2018-06-18T19:26:10.424Z,21.00
2018-06-18T19:28:37.971Z,21.00
2018-06-18T19:31:12.467Z,20.90
2018-06-18T19:33:54.400Z,20.80
2018-06-18T19:36:22.557Z,20.80
2018-06-18T19:38:50.853Z,20.70
2018-06-18T19:41:18.687Z,20.70
2018-06-18T19:43:46.788Z,20.70
2018-06-18T19:46:16.301Z,20.60
2018-06-18T19:48:53.204Z,20.50
2018-06-18T19:51:20.756Z,20.50
2018-06-18T19:53:48.616Z,20.50
2018-06-18T19:56:21.238Z,20.40
2018-06-18T19:58:48.774Z,20.40
2018-06-18T20:01:17.492Z,20.30
2018-06-18T20:03:46.318Z,20.30
2018-06-18T20:06:14.198Z,20.10
2018-06-18T20:08:42.052Z,20.20
2018-06-18T20:11:09.521Z,20.20
2018-06-18T20:13:37.001Z,20.10
2018-06-18T20:16:04.437Z,20.10
2018-06-18T20:18:31.926Z,20.10
2018-06-18T20:20:59.284Z,20.10
2018-06-18T20:23:27.243Z,20.00
2018-06-18T20:26:06.008Z,20.00
2018-06-18T20:28:33.373Z,20.00
2018-06-18T20:31:00.840Z,20.00
2018-06-18T20:33:35.099Z,19.90
2018-06-18T20:36:09.224Z,19.90
2018-06-18T20:38:36.625Z,19.90
2018-06-18T20:41:04.081Z,19.80
2018-06-18T20:43:38.609Z,19.80
2018-06-18T20:46:06.346Z,19.80
2018-06-18T20:48:34.782Z,19.80
2018-06-18T20:51:02.969Z,19.70
2018-06-18T20:53:31.195Z,19.60
2018-06-18T20:55:59.306Z,19.70
2018-06-18T20:58:27.213Z,19.60
2018-06-18T21:00:55.069Z,19.60
2018-06-18T21:03:23.558Z,19.50
2018-06-18T21:05:51.443Z,19.50
2018-06-18T21:08:19.699Z,19.50
2018-06-18T21:10:47.828Z,19.40
2018-06-18T21:13:16.202Z,19.40
2018-06-18T21:15:44.887Z,19.40
2018-06-18T21:18:13.050Z,19.40
2018-06-18T21:20:41.167Z,19.30
2018-06-18T21:23:09.298Z,19.30
2018-06-18T21:25:37.460Z,19.30
2018-06-18T21:28:06.562Z,19.30
2018-06-18T21:30:49.883Z,19.30
2018-06-18T21:33:17.798Z,19.30
2018-06-18T21:35:46.644Z,19.20
2018-06-18T21:38:14.852Z,19.20
2018-06-18T21:40:42.702Z,19.10
2018-06-18T21:43:10.535Z,19.20
2018-06-18T21:45:38.415Z,19.20
2018-06-18T21:48:11.618Z,19.10
2018-06-18T21:50:39.331Z,19.10
2018-06-18T21:53:06.721Z,19.10
2018-06-18T21:55:34.043Z,19.10
2018-06-18T21:58:01.458Z,19.10
2018-06-18T22:00:31.472Z,19.00
2018-06-18T22:02:58.800Z,19.00
2018-06-18T22:05:26.254Z,18.90
2018-06-18T22:07:54.157Z,18.90
2018-06-18T22:10:21.438Z,18.90
2018-06-18T22:12:48.832Z,18.80
2018-06-18T22:15:16.299Z,18.80
2018-06-18T22:17:44.597Z,18.80
2018-06-18T22:20:12.148Z,18.80
2018-06-18T22:22:39.472Z,18.80
2018-06-18T22:25:06.754Z,18.80
2018-06-18T22:27:34.060Z,18.80
2018-06-18T22:30:01.539Z,18.70
2018-06-18T22:32:29.285Z,18.80
2018-06-18T22:34:56.727Z,18.80
2018-06-18T22:37:24.122Z,18.80
2018-06-18T22:39:51.796Z,18.80
2018-06-18T22:42:19.148Z,18.80
2018-06-18T22:45:06.941Z,18.90
2018-06-18T22:47:34.352Z,18.90
2018-06-18T22:50:01.699Z,18.90
2018-06-18T22:52:29.013Z,18.90
2018-06-18T22:54:56.492Z,18.90
2018-06-18T22:57:23.968Z,18.90
2018-06-18T22:59:51.346Z,18.90
2018-06-18T23:02:26.819Z,18.90
2018-06-18T23:04:54.200Z,18.80
2018-06-18T23:07:21.569Z,18.80
2018-06-18T23:09:49.709Z,18.80
2018-06-18T23:12:18.021Z,18.80
2018-06-18T23:14:46.734Z,18.80
2018-06-18T23:17:14.277Z,18.80
2018-06-18T23:19:41.633Z,18.70
2018-06-18T23:22:12.238Z,18.70
2018-06-18T23:24:39.683Z,18.70
2018-06-18T23:27:07.771Z,18.60
2018-06-18T23:29:35.077Z,18.60
2018-06-18T23:32:02.490Z,18.60
2018-06-18T23:34:29.971Z,18.60
2018-06-18T23:36:57.337Z,18.70
2018-06-18T23:39:24.621Z,18.70
2018-06-18T23:41:54.062Z,18.70
2018-06-18T23:44:21.370Z,18.70
2018-06-18T23:46:48.911Z,18.70
2018-06-18T23:49:16.425Z,18.60
2018-06-18T23:51:43.894Z,18.60
2018-06-18T23:54:11.353Z,18.60
2018-06-18T23:56:38.783Z,18.60
2018-06-18T23:59:06.484Z,18.50
